Time;durP1;ratioP1;P1;durP2;ratioP2;P2;SDS_P1;SDS_P2;PMS_P1;PMS_P2;Temp;Humidity;BMP_temperature;BMP_pressure;BME280_temperature;BME280_humidity;BME280_pressure;Samples;Min_cycle;Max_cycle;Signal;HPM_P1;HPM_P2
2023/03/02 00:01:51;;;;;;;47.88;44.97;;;-0.90;99.90;;;;;;4205205;28;20047;-89
2023/03/02 00:04:22;;;;;;;59.90;54.88;;;-1.00;99.90;;;;;;4191324;28;20051;-89
2023/03/02 00:06:42;;;;;;;58.20;53.65;;;-1.00;99.90;;;;;;4206294;28;20051;-89
2023/03/02 00:09:04;;;;;;;76.13;63.33;;;-1.00;99.90;;;;;;4207105;28;20086;-89
2023/03/02 00:11:25;;;;;;;194.87;62.03;;;-1.20;99.90;;;;;;4181906;28;20287;-89
2023/03/02 00:13:46;;;;;;;59.85;54.72;;;-1.30;99.90;;;;;;4181341;28;20053;-89
2023/03/02 00:16:06;;;;;;;65.15;58.65;;;-1.40;99.90;;;;;;4203166;28;20064;-89
2023/03/02 00:18:26;;;;;;;74.88;59.85;;;-1.40;99.90;;;;;;4202394;28;20047;-89
2023/03/02 00:20:46;;;;;;;256.20;74.60;;;-1.40;99.90;;;;;;4207310;28;20050;-89
2023/03/02 00:23:06;;;;;;;162.55;63.17;;;-1.50;99.90;;;;;;4187812;28;20056;-89
2023/03/02 00:25:27;;;;;;;236.63;70.38;;;-1.60;99.90;;;;;;4203586;28;20240;-89
2023/03/02 00:27:49;;;;;;;175.50;67.05;;;-1.60;99.90;;;;;;4207134;28;20059;-89
2023/03/02 00:30:10;;;;;;;228.88;72.60;;;-1.60;99.90;;;;;;4189850;28;20386;-89
2023/03/02 00:32:33;;;;;;;125.10;62.63;;;-1.60;99.90;;;;;;4206961;28;20244;-89
2023/03/02 00:34:53;;;;;;;55.75;52.30;;;-1.60;99.90;;;;;;4188877;28;20095;-89
2023/03/02 00:37:13;;;;;;;45.85;43.03;;;-1.40;99.90;;;;;;4204163;28;20055;-89
2023/03/02 00:39:32;;;;;;;52.83;49.83;;;-1.10;99.90;;;;;;4206980;28;20059;-89
2023/03/02 00:41:53;;;;;;;45.97;43.25;;;-0.90;99.90;;;;;;4205697;28;20408;-89
2023/03/02 00:44:16;;;;;;;46.60;43.92;;;-0.90;99.90;;;;;;4187107;28;20139;-88
2023/03/02 00:46:37;;;;;;;42.80;40.78;;;-0.80;99.90;;;;;;4203722;28;20044;-89
2023/03/02 00:48:57;;;;;;;42.97;40.88;;;-0.80;99.90;;;;;;4205944;28;20048;-89
2023/03/02 00:51:17;;;;;;;42.03;40.35;;;-0.70;99.90;;;;;;4204703;28;20087;-89
2023/03/02 00:53:38;;;;;;;42.85;40.75;;;-0.60;99.90;;;;;;4191850;28;20052;-89
2023/03/02 00:56:00;;;;;;;40.42;38.65;;;-0.60;99.90;;;;;;4205985;28;20073;-89
2023/03/02 00:58:20;;;;;;;43.45;41.53;;;-0.60;99.90;;;;;;4204272;28;20043;-90
2023/03/02 01:00:40;;;;;;;38.10;36.53;;;-0.60;99.90;;;;;;4188380;28;20422;-89
2023/03/02 01:03:00;;;;;;;41.33;39.53;;;-0.50;99.90;;;;;;4181498;28;20367;-89
2023/03/02 01:05:20;;;;;;;45.65;43.45;;;-0.60;99.90;;;;;;4188276;28;20075;-89
2023/03/02 01:07:41;;;;;;;41.63;39.65;;;-0.60;99.90;;;;;;4202727;28;20090;-89
2023/03/02 01:10:01;;;;;;;46.58;44.25;;;-0.60;99.90;;;;;;4204335;28;20073;-89
2023/03/02 01:12:22;;;;;;;49.60;47.00;;;-0.60;99.90;;;;;;4188199;28;20074;-89
2023/03/02 01:14:46;;;;;;;49.63;47.05;;;-0.50;99.90;;;;;;4206736;28;20062;-89
2023/03/02 01:17:06;;;;;;;;;;;-0.60;99.90;;;;;;4184652;28;20048;-89
2023/03/02 01:19:26;;;;;;;45.28;42.58;;;-0.60;99.90;;;;;;4194893;28;19959;-89
2023/03/02 01:21:47;;;;;;;45.00;42.20;;;-0.70;99.90;;;;;;4206165;28;20048;-89
2023/03/02 01:24:08;;;;;;;47.40;44.80;;;-0.70;99.90;;;;;;4182391;28;20076;-89
2023/03/02 01:26:29;;;;;;;47.65;45.03;;;-0.80;99.90;;;;;;4206023;28;20831;-89
2023/03/02 01:28:54;;;;;;;49.28;46.60;;;-0.80;99.90;;;;;;4204940;28;20055;-89
2023/03/02 01:31:13;;;;;;;47.50;45.10;;;-0.80;99.90;;;;;;4203182;28;20075;-89
2023/03/02 01:33:34;;;;;;;49.45;47.05;;;-0.80;99.90;;;;;;4206292;28;20082;-89
2023/03/02 01:35:55;;;;;;;46.72;44.40;;;-0.80;99.90;;;;;;4204117;28;20082;-89
2023/03/02 01:38:15;;;;;;;43.13;41.13;;;-0.80;99.90;;;;;;4191414;28;20043;-89
2023/03/02 01:40:35;;;;;;;39.13;37.63;;;-0.70;99.90;;;;;;4206358;28;20231;-89
2023/03/02 01:43:01;;;;;;;43.30;41.30;;;-0.70;99.90;;;;;;4205627;28;20055;-88
2023/03/02 01:45:43;;;;;;;42.45;40.72;;;-0.70;99.90;;;;;;4189000;28;20096;-89
2023/03/02 01:48:03;;;;;;;41.38;39.67;;;-0.70;99.90;;;;;;4206107;28;20243;-89
2023/03/02 01:50:25;;;;;;;34.78;33.58;;;-0.60;99.90;;;;;;4205470;28;20085;-89
2023/03/02 01:52:49;;;;;;;41.90;39.90;;;-0.60;99.90;;;;;;4188673;28;20080;-89
2023/03/02 01:55:13;;;;;;;39.75;38.05;;;-0.60;99.90;;;;;;4188536;28;20352;-89
2023/03/02 01:57:42;;;;;;;40.95;38.97;;;-0.50;99.90;;;;;;4186541;28;20044;-89
2023/03/02 02:00:09;;;;;;;41.95;40.17;;;-0.50;99.90;;;;;;4204927;28;20370;-89
2023/03/02 02:02:30;;;;;;;41.45;39.95;;;-0.50;99.90;;;;;;4205890;28;20040;-89
2023/03/02 02:04:50;;;;;;;39.33;37.70;;;-0.50;99.90;;;;;;4204507;28;20100;-89
2023/03/02 02:07:11;;;;;;;38.83;37.15;;;-0.50;99.90;;;;;;4189855;28;20052;-89
2023/03/02 02:09:43;;;;;;;38.97;37.45;;;-0.50;99.90;;;;;;4186860;28;20374;-89
2023/03/02 02:12:04;;;;;;;38.85;37.25;;;-0.50;99.90;;;;;;4205948;28;20105;-89
2023/03/02 02:14:25;;;;;;;37.47;35.95;;;-0.60;99.90;;;;;;4183408;28;20084;-89
2023/03/02 02:16:45;;;;;;;32.42;31.33;;;-0.60;99.90;;;;;;4176526;28;20044;-89
2023/03/02 02:19:29;;;;;;;33.55;32.15;;;-0.70;99.90;;;;;;4189742;28;20111;-89
2023/03/02 02:21:49;;;;;;;37.00;35.55;;;-0.70;99.90;;;;;;4201956;28;20083;-89
2023/03/02 02:24:18;;;;;;;42.63;40.67;;;-0.70;99.90;;;;;;4205906;28;20047;-89
2023/03/02 02:26:42;;;;;;;38.28;36.50;;;-0.60;99.90;;;;;;4190601;28;20123;-89
2023/03/02 02:29:29;;;;;;;39.55;37.67;;;-0.70;99.90;;;;;;4190205;28;20376;-90
2023/03/02 02:31:56;;;;;;;43.50;41.30;;;-0.80;99.90;;;;;;4203900;28;20091;-89
2023/03/02 02:34:27;;;;;;;45.80;43.28;;;-0.80;99.90;;;;;;4204587;28;20039;-89
2023/03/02 02:36:56;;;;;;;48.53;45.85;;;-0.80;99.90;;;;;;4182409;28;20241;-89
2023/03/02 02:39:33;;;;;;;50.03;46.72;;;-0.90;99.90;;;;;;4205783;28;20048;-89
2023/03/02 02:41:59;;;;;;;48.20;45.60;;;-0.90;99.90;;;;;;4190719;28;20332;-89
2023/03/02 02:44:19;;;;;;;51.25;48.25;;;-1.00;99.90;;;;;;4189380;28;20040;-89
2023/03/02 02:46:39;;;;;;;49.75;46.85;;;-1.10;99.90;;;;;;4187920;28;20056;-89
2023/03/02 02:49:01;;;;;;;48.35;45.47;;;-1.10;99.90;;;;;;4190505;28;20082;-89
2023/03/02 02:51:26;;;;;;;45.33;42.70;;;-1.00;99.90;;;;;;4183487;28;20100;-89
2023/03/02 02:53:57;;;;;;;46.40;43.72;;;-1.00;99.90;;;;;;4204943;28;20282;-89
2023/03/02 02:56:18;;;;;;;45.72;43.42;;;-1.00;99.90;;;;;;4180237;28;20225;-89
2023/03/02 02:58:50;;;;;;;44.67;42.67;;;-0.90;99.90;;;;;;4205534;28;20119;-89
2023/03/02 03:01:17;;;;;;;40.13;38.53;;;-0.90;99.90;;;;;;4188853;28;20228;-89
2023/03/02 03:03:38;;;;;;;36.22;34.78;;;-0.80;99.90;;;;;;4203848;28;20044;-89
2023/03/02 03:06:01;;;;;;;43.17;41.38;;;-0.70;99.90;;;;;;4190505;28;20052;-89
2023/03/02 03:08:40;;;;;;;;;;;-0.70;99.90;;;;;;4189678;28;20113;-89
2023/03/02 03:11:01;;;;;;;38.63;37.15;;;-0.70;99.90;;;;;;4202478;28;19923;-89
2023/03/02 03:13:21;;;;;;;32.95;31.92;;;-0.70;99.90;;;;;;4189046;28;20048;-88
2023/03/02 03:15:41;;;;;;;36.72;35.33;;;-0.60;99.90;;;;;;4187034;28;20078;-89
2023/03/02 03:18:01;;;;;;;38.00;36.53;;;-0.50;99.90;;;;;;4177472;28;20056;-89
2023/03/02 03:20:23;;;;;;;35.10;33.83;;;-0.50;99.90;;;;;;4189270;28;20128;-89
2023/03/02 03:22:43;;;;;;;35.45;34.33;;;-0.50;99.90;;;;;;4186469;28;20072;-88
2023/03/02 03:25:04;;;;;;;37.58;36.38;;;-0.30;99.90;;;;;;4201814;28;20366;-89
2023/03/02 03:27:26;;;;;;;35.38;34.25;;;-0.20;99.90;;;;;;4205137;28;20079;-89
2023/03/02 03:29:47;;;;;;;37.25;36.00;;;-0.10;99.90;;;;;;4200262;28;20067;-89
2023/03/02 03:32:07;;;;;;;36.78;35.47;;;-0.10;99.90;;;;;;4192885;28;20047;-89
2023/03/02 03:34:28;;;;;;;33.72;32.75;;;-0.10;99.90;;;;;;4207459;28;20120;-88
2023/03/02 03:36:50;;;;;;;34.47;33.47;;;0.10;99.90;;;;;;4191256;28;20051;-89
2023/03/02 03:39:11;;;;;;;34.67;33.50;;;0.10;99.90;;;;;;4205507;28;20043;-89
2023/03/02 03:41:31;;;;;;;39.88;38.22;;;0.10;99.90;;;;;;4192838;28;20043;-89
2023/03/02 03:43:52;;;;;;;36.17;34.88;;;0.10;99.90;;;;;;4186026;28;20092;-89
2023/03/02 03:46:12;;;;;;;34.92;33.55;;;-0.10;99.90;;;;;;4191957;28;20047;-89
2023/03/02 03:48:32;;;;;;;37.80;36.55;;;-0.10;99.90;;;;;;4192842;28;20048;-89
2023/03/02 03:50:51;;;;;;;35.58;34.38;;;-0.10;99.90;;;;;;4204113;28;20052;-89
2023/03/02 03:53:11;;;;;;;33.30;31.90;;;-0.10;99.90;;;;;;4192561;28;20374;-89
2023/03/02 03:55:32;;;;;;;31.90;30.75;;;-0.10;99.90;;;;;;4192472;28;20120;-89
2023/03/02 03:57:51;;;;;;;34.72;33.47;;;-0.20;99.90;;;;;;4207823;28;20067;-89
2023/03/02 04:00:16;;;;;;;39.15;37.55;;;-0.20;99.90;;;;;;4207618;28;20078;-89
2023/03/02 04:02:36;;;;;;;37.65;36.30;;;-0.10;99.90;;;;;;4192479;28;20051;-89
2023/03/02 04:05:05;;;;;;;33.63;32.53;;;0.00;99.90;;;;;;4200013;28;20050;-89
2023/03/02 04:07:25;;;;;;;35.05;33.88;;;0.00;99.90;;;;;;4206883;28;20362;-89
2023/03/02 04:09:45;;;;;;;36.38;35.17;;;-0.10;99.90;;;;;;4207597;28;20111;-89
2023/03/02 04:12:07;;;;;;;37.75;36.55;;;-0.10;99.90;;;;;;4186000;28;20112;-89
2023/03/02 04:14:27;;;;;;;41.03;39.38;;;-0.10;99.90;;;;;;4192242;28;20075;-89
2023/03/02 04:16:49;;;;;;;80.95;60.28;;;-0.20;99.90;;;;;;4192032;28;20068;-90
2023/03/02 04:19:10;;;;;;;59.00;53.40;;;-0.40;99.90;;;;;;4205038;28;20052;-89
2023/03/02 04:21:31;;;;;;;50.83;46.28;;;-0.50;99.90;;;;;;4187407;28;20067;-89
2023/03/02 04:23:51;;;;;;;51.28;47.50;;;-0.60;99.90;;;;;;4186312;28;20060;-89
2023/03/02 04:26:11;;;;;;;44.17;41.92;;;-0.70;99.90;;;;;;4192362;28;20056;-89
2023/03/02 04:28:31;;;;;;;41.15;39.35;;;-0.60;99.90;;;;;;4207354;28;20075;-89
2023/03/02 04:30:51;;;;;;;39.15;37.45;;;-0.50;99.90;;;;;;4206226;28;20067;-89
2023/03/02 04:33:11;;;;;;;36.55;35.15;;;-0.40;99.90;;;;;;4180642;28;20403;-89
2023/03/02 04:35:31;;;;;;;37.70;36.10;;;-0.30;99.90;;;;;;4207195;28;20051;-89
2023/03/02 04:37:51;;;;;;;31.98;30.63;;;-0.20;99.90;;;;;;4182652;28;20275;-89
2023/03/02 04:40:12;;;;;;;30.42;29.27;;;0.10;99.90;;;;;;4184845;28;20045;-90
2023/03/02 04:42:32;;;;;;;36.38;34.95;;;0.10;99.90;;;;;;4192145;28;20067;-89
2023/03/02 04:44:52;;;;;;;36.45;35.00;;;0.00;99.90;;;;;;4184391;28;20057;-90
2023/03/02 04:47:14;;;;;;;36.03;34.78;;;-0.10;99.90;;;;;;4190068;28;20320;-89
2023/03/02 04:49:34;;;;;;;35.78;34.40;;;0.00;99.90;;;;;;4189288;28;20075;-89
2023/03/02 04:51:54;;;;;;;33.58;32.38;;;0.20;99.90;;;;;;4188161;28;20052;-90
2023/03/02 04:54:23;;;;;;;29.65;28.58;;;0.30;99.90;;;;;;4205045;28;20044;-89
2023/03/02 04:56:50;;;;;;;26.45;25.55;;;0.40;99.90;;;;;;4205955;28;20093;-89
2023/03/02 04:59:09;;;;;;;28.88;27.58;;;0.60;99.90;;;;;;4206982;28;20154;-90
2023/03/02 05:01:29;;;;;;;25.45;24.48;;;0.90;99.90;;;;;;4204266;28;20322;-90
2023/03/02 05:03:49;;;;;;;29.02;28.08;;;0.70;99.90;;;;;;4192002;28;20391;-89
2023/03/02 05:06:45;;;;;;;14.30;13.70;;;0.90;99.90;;;;;;4206957;28;20357;-90
2023/03/02 05:09:05;;;;;;;14.50;14.02;;;1.10;99.90;;;;;;4197592;28;20044;-90
2023/03/02 05:11:27;;;;;;;12.57;12.10;;;1.70;99.90;;;;;;4191451;28;20099;-90
2023/03/02 05:13:52;;;;;;;11.90;11.57;;;2.30;99.90;;;;;;4190834;28;20392;-89
2023/03/02 05:16:13;;;;;;;14.27;13.68;;;1.80;99.90;;;;;;4202759;28;20289;-89
2023/03/02 05:18:33;;;;;;;27.88;27.08;;;1.20;99.90;;;;;;4201872;28;20055;-90
2023/03/02 05:20:54;;;;;;;25.25;24.05;;;1.10;99.90;;;;;;4186665;28;20324;-90
2023/03/02 05:23:22;;;;;;;15.23;14.93;;;0.90;99.90;;;;;;4191527;28;20465;-90
2023/03/02 05:25:44;;;;;;;11.35;10.95;;;0.90;99.90;;;;;;4191989;28;20086;-90
2023/03/02 05:28:05;;;;;;;17.52;16.63;;;1.00;99.90;;;;;;4190308;28;20087;-90
2023/03/02 05:30:25;;;;;;;13.52;13.00;;;1.00;99.90;;;;;;4190378;28;20040;-90
2023/03/02 05:32:46;;;;;;;15.60;14.95;;;1.00;99.90;;;;;;4191505;28;20116;-90
2023/03/02 05:35:06;;;;;;;14.45;13.93;;;1.30;99.90;;;;;;4206310;28;20082;-90
2023/03/02 05:37:26;;;;;;;17.55;16.90;;;1.20;99.90;;;;;;4206555;28;20070;-90
2023/03/02 05:39:46;;;;;;;19.25;18.80;;;1.20;99.90;;;;;;4178865;28;20044;-90
2023/03/02 05:42:06;;;;;;;13.30;12.93;;;1.00;99.90;;;;;;4203601;28;20071;-90
2023/03/02 05:44:26;;;;;;;13.55;13.25;;;0.90;99.90;;;;;;4188166;28;20096;-90
2023/03/02 05:46:48;;;;;;;12.07;11.73;;;0.90;99.90;;;;;;4185692;28;20091;-90
2023/03/02 05:49:09;;;;;;;11.05;10.85;;;1.00;99.90;;;;;;4191323;28;20115;-90
2023/03/02 05:51:30;;;;;;;12.60;12.07;;;1.20;99.90;;;;;;4185058;28;20325;-90
2023/03/02 05:53:50;;;;;;;13.82;13.50;;;1.30;99.90;;;;;;4190625;28;20338;-90
2023/03/02 05:56:10;;;;;;;10.05;9.77;;;1.40;99.90;;;;;;4189385;28;20052;-90
2023/03/02 05:58:30;;;;;;;12.18;11.57;;;1.40;99.90;;;;;;4186095;28;20040;-90
2023/03/02 06:00:50;;;;;;;13.82;13.15;;;1.50;99.90;;;;;;4190961;28;20055;-90
2023/03/02 06:03:10;;;;;;;12.73;12.23;;;1.60;99.90;;;;;;4203761;28;20138;-90
2023/03/02 06:05:30;;;;;;;15.23;14.38;;;1.70;99.90;;;;;;4188746;28;20063;-90
2023/03/02 06:07:51;;;;;;;12.82;12.45;;;1.60;99.90;;;;;;4204928;28;20063;-90
2023/03/02 06:10:12;;;;;;;12.95;11.88;;;1.60;99.90;;;;;;4205752;28;20078;-90
2023/03/02 06:12:33;;;;;;;11.60;11.30;;;1.70;99.90;;;;;;4181269;28;20088;-90
2023/03/02 06:14:53;;;;;;;20.60;18.75;;;1.80;99.90;;;;;;4205951;28;20223;-90
2023/03/02 06:17:17;;;;;;;12.65;12.15;;;1.80;99.90;;;;;;4202499;28;20047;-89
2023/03/02 06:19:37;;;;;;;19.20;15.32;;;1.70;99.90;;;;;;4190809;28;20119;-87
2023/03/02 06:21:58;;;;;;;20.67;18.88;;;1.90;99.90;;;;;;4204566;28;20085;-87
2023/03/02 06:24:18;;;;;;;12.65;12.05;;;1.80;99.90;;;;;;4189135;28;20398;-87
2023/03/02 06:26:37;;;;;;;23.85;21.38;;;1.50;99.90;;;;;;4205651;28;20304;-88
2023/03/02 06:28:57;;;;;;;24.55;22.08;;;1.40;99.90;;;;;;4186861;28;20091;-88
2023/03/02 06:31:20;;;;;;;19.20;17.80;;;1.50;99.90;;;;;;4189649;28;20119;-88
2023/03/02 06:33:40;;;;;;;19.85;18.38;;;1.60;99.90;;;;;;4188566;28;20074;-88
2023/03/02 06:36:00;;;;;;;18.10;16.73;;;1.80;99.90;;;;;;4202403;28;20089;-88
2023/03/02 06:38:20;;;;;;;27.23;24.55;;;2.00;99.90;;;;;;4190637;28;20036;-88
2023/03/02 06:40:40;;;;;;;21.15;18.75;;;1.90;99.90;;;;;;4190616;28;20044;-88
2023/03/02 06:43:00;;;;;;;22.80;20.67;;;1.80;99.90;;;;;;4205447;28;20048;-88
2023/03/02 06:45:23;;;;;;;;;;;1.80;99.90;;;;;;4175552;28;20262;-88
2023/03/02 06:47:43;;;;;;;21.38;19.60;;;1.80;99.90;;;;;;4189690;28;19963;-88
2023/03/02 06:50:03;;;;;;;15.07;14.20;;;1.90;99.90;;;;;;4178228;28;20048;-89
2023/03/02 06:52:23;;;;;;;14.18;13.57;;;2.10;99.90;;;;;;4205274;28;20047;-88
2023/03/02 06:54:43;;;;;;;14.90;13.98;;;2.40;99.90;;;;;;4189745;28;20104;-88
2023/03/02 06:57:04;;;;;;;16.27;15.55;;;2.70;99.90;;;;;;4190551;28;20064;-89
2023/03/02 06:59:25;;;;;;;15.85;15.07;;;2.50;99.90;;;;;;4177261;28;20088;-88
2023/03/02 07:01:45;;;;;;;14.10;13.10;;;2.30;99.90;;;;;;4205223;28;20369;-87
2023/03/02 07:04:05;;;;;;;14.02;13.57;;;2.30;99.90;;;;;;4204608;28;20365;-88
2023/03/02 07:06:25;;;;;;;16.00;15.15;;;2.30;99.90;;;;;;4208258;28;20113;-88
2023/03/02 07:08:45;;;;;;;17.02;16.23;;;2.50;99.90;;;;;;4207983;28;20086;-88
2023/03/02 07:11:07;;;;;;;16.25;15.13;;;2.70;99.90;;;;;;4207965;28;20098;-88
2023/03/02 07:13:29;;;;;;;16.83;15.75;;;3.00;99.90;;;;;;4208004;28;20085;-88
2023/03/02 07:15:49;;;;;;;15.52;14.57;;;3.10;99.90;;;;;;4193142;28;20063;-88
2023/03/02 07:18:09;;;;;;;16.08;14.82;;;3.20;99.90;;;;;;4205940;28;20046;-88
2023/03/02 07:20:29;;;;;;;16.88;16.08;;;3.30;99.90;;;;;;4192848;28;20048;-88
2023/03/02 07:22:50;;;;;;;14.05;13.48;;;3.40;99.90;;;;;;4184056;28;20101;-88
2023/03/02 07:25:11;;;;;;;20.67;19.00;;;3.60;99.90;;;;;;4192901;28;20064;-88
2023/03/02 07:27:32;;;;;;;14.68;13.68;;;3.90;99.90;;;;;;4192715;28;20418;-88
2023/03/02 07:29:52;;;;;;;10.50;9.80;;;3.90;99.90;;;;;;4207950;28;20043;-88
2023/03/02 07:32:11;;;;;;;10.82;10.52;;;3.80;99.90;;;;;;4183288;28;20048;-88
2023/03/02 07:34:31;;;;;;;13.52;12.60;;;3.80;99.90;;;;;;4179660;28;20088;-88
2023/03/02 07:36:52;;;;;;;12.18;11.85;;;3.80;99.90;;;;;;4192396;28;20271;-88
2023/03/02 07:39:12;;;;;;;32.65;29.92;;;3.90;99.90;;;;;;4191948;28;20055;-88
2023/03/02 07:41:32;;;;;;;15.05;14.15;;;3.80;99.90;;;;;;4207243;28;20055;-88
2023/03/02 07:43:52;;;;;;;14.25;13.55;;;3.70;99.90;;;;;;4192417;28;20044;-88
2023/03/02 07:46:12;;;;;;;14.75;14.25;;;3.70;99.90;;;;;;4192483;28;20052;-88
2023/03/02 07:48:33;;;;;;;16.60;15.57;;;3.80;99.90;;;;;;4182465;28;20056;-88
2023/03/02 07:50:59;;;;;;;16.13;14.82;;;3.90;99.90;;;;;;4192750;28;20043;-88
2023/03/02 07:53:19;;;;;;;17.40;16.20;;;4.10;99.90;;;;;;4187587;28;20082;-88
2023/03/02 07:55:40;;;;;;;19.75;18.13;;;4.30;99.90;;;;;;4207618;28;20074;-88
2023/03/02 07:58:00;;;;;;;11.57;11.00;;;4.50;99.90;;;;;;4192625;28;20052;-88
2023/03/02 08:00:20;;;;;;;14.85;14.07;;;4.60;99.90;;;;;;4207364;28;20050;-88
2023/03/02 08:02:41;;;;;;;14.68;13.85;;;4.80;99.90;;;;;;4191063;28;20060;-88
2023/03/02 08:05:01;;;;;;;11.48;11.02;;;4.90;99.90;;;;;;4197768;28;20079;-88
2023/03/02 08:07:21;;;;;;;14.70;14.05;;;4.90;99.90;;;;;;4207388;28;20056;-88
2023/03/02 08:09:40;;;;;;;12.65;11.90;;;4.80;99.90;;;;;;4197239;28;20127;-88
2023/03/02 08:12:00;;;;;;;15.15;14.27;;;4.90;99.90;;;;;;4190707;28;20075;-88
2023/03/02 08:14:20;;;;;;;14.60;13.55;;;4.80;99.90;;;;;;4206865;28;20397;-88
2023/03/02 08:16:42;;;;;;;14.45;13.38;;;4.80;99.90;;;;;;4205986;28;20047;-87
2023/03/02 08:19:03;;;;;;;14.95;13.73;;;4.70;99.90;;;;;;4191973;28;20116;-88
2023/03/02 08:21:25;;;;;;;15.57;14.40;;;4.70;99.90;;;;;;4185301;28;20053;-88
2023/03/02 08:23:45;;;;;;;21.45;19.45;;;4.60;99.90;;;;;;4204748;28;20051;-88
2023/03/02 08:26:07;;;;;;;18.20;16.55;;;4.60;99.90;;;;;;4192155;28;20259;-88
2023/03/02 08:28:27;;;;;;;14.93;14.00;;;4.60;99.90;;;;;;4206545;28;20047;-88
2023/03/02 08:31:00;;;;;;;14.63;13.60;;;4.70;99.90;;;;;;4184511;28;20045;-88
2023/03/02 08:33:20;;;;;;;13.35;12.68;;;4.70;99.90;;;;;;4206650;28;20059;-88
2023/03/02 08:35:40;;;;;;;12.48;11.80;;;4.80;99.90;;;;;;4206724;28;20051;-88
2023/03/02 08:38:00;;;;;;;14.27;13.63;;;4.80;99.90;;;;;;4190097;28;20044;-89
2023/03/02 08:40:19;;;;;;;14.77;14.02;;;4.80;99.90;;;;;;4188929;28;20093;-89
2023/03/02 08:42:39;;;;;;;13.32;12.57;;;4.90;99.90;;;;;;4205343;28;20341;-88
2023/03/02 08:44:59;;;;;;;11.73;11.40;;;5.00;99.90;;;;;;4199905;28;20366;-88
2023/03/02 08:47:19;;;;;;;10.85;10.35;;;5.10;99.90;;;;;;4191538;28;20370;-88
2023/03/02 08:49:39;;;;;;;15.63;14.38;;;5.20;99.90;;;;;;4205446;28;20082;-89
2023/03/02 08:51:59;;;;;;;15.43;14.43;;;5.30;99.90;;;;;;4203520;28;20362;-88
2023/03/02 08:54:20;;;;;;;10.35;9.77;;;5.40;99.90;;;;;;4182053;28;20108;-89
2023/03/02 08:56:40;;;;;;;11.30;10.90;;;5.40;99.90;;;;;;4205942;28;20079;-89
2023/03/02 08:59:03;;;;;;;10.07;9.75;;;5.50;99.90;;;;;;4188681;28;20101;-89
2023/03/02 09:01:25;;;;;;;;;;;5.60;99.90;;;;;;4184430;28;20048;-89
2023/03/02 09:03:45;;;;;;;10.73;10.38;;;5.60;99.90;;;;;;4206805;28;19957;-89
2023/03/02 09:06:06;;;;;;;9.57;9.48;;;5.60;99.90;;;;;;4205852;28;20048;-89
2023/03/02 09:08:26;;;;;;;9.65;8.93;;;5.60;99.90;;;;;;4179809;28;20040;-89
2023/03/02 09:10:46;;;;;;;10.73;10.25;;;5.70;99.90;;;;;;4204854;28;20121;-89
2023/03/02 09:13:06;;;;;;;8.70;8.60;;;5.70;99.90;;;;;;4204875;28;20390;-89
2023/03/02 09:15:28;;;;;;;9.98;9.55;;;5.80;99.90;;;;;;4188122;28;20044;-90
2023/03/02 09:17:48;;;;;;;8.70;8.32;;;5.90;99.90;;;;;;4183887;28;20052;-90
2023/03/02 09:20:08;;;;;;;8.73;8.52;;;5.80;99.90;;;;;;4206453;28;20047;-89
2023/03/02 09:22:30;;;;;;;9.50;8.88;;;5.80;99.90;;;;;;4203081;28;20051;-89
2023/03/02 09:24:52;;;;;;;9.88;9.38;;;5.80;99.90;;;;;;4206113;28;20078;-89
2023/03/02 09:27:13;;;;;;;9.05;8.73;;;6.00;99.90;;;;;;4179699;28;20049;-89
2023/03/02 09:29:34;;;;;;;10.00;9.47;;;6.00;99.90;;;;;;4186949;28;20052;-89
2023/03/02 09:31:54;;;;;;;8.10;8.00;;;6.10;99.90;;;;;;4206279;28;20051;-89
2023/03/02 09:34:14;;;;;;;9.65;9.35;;;6.20;99.90;;;;;;4204558;28;20108;-89
2023/03/02 09:36:35;;;;;;;7.60;7.22;;;6.30;99.90;;;;;;4187265;28;20291;-88
2023/03/02 09:38:55;;;;;;;9.00;8.80;;;6.40;99.90;;;;;;4195070;28;20113;-88
2023/03/02 09:41:18;;;;;;;9.35;8.77;;;6.80;99.90;;;;;;4187638;28;20048;-89
2023/03/02 09:44:12;;;;;;;10.63;10.02;;;7.10;99.90;;;;;;4191062;28;20056;-89
2023/03/02 09:46:35;;;;;;;8.30;7.78;;;7.60;99.90;;;;;;4185092;28;20052;-89
2023/03/02 09:49:24;;;;;;;;;;;7.70;99.90;;;;;;4206286;28;20055;-89
2023/03/02 09:51:47;;;;;;;8.07;7.65;;;8.00;99.90;;;;;;4126981;28;19950;-89
2023/03/02 09:54:15;;;;;;;7.75;7.45;;;8.10;99.90;;;;;;4189054;28;20584;-88
2023/03/02 09:56:53;;;;;;;8.63;8.23;;;8.00;99.90;;;;;;4190727;28;20090;-89
2023/03/02 09:59:23;;;;;;;8.35;7.55;;;8.10;99.90;;;;;;4203828;28;20079;-89
2023/03/02 10:01:51;;;;;;;6.75;6.45;;;8.40;99.90;;;;;;4201119;28;20059;-90
2023/03/02 10:04:22;;;;;;;5.50;5.30;;;8.40;99.90;;;;;;4205689;28;20043;-89
2023/03/02 10:06:42;;;;;;;6.15;5.95;;;8.50;99.90;;;;;;4205153;28;20055;-89
2023/03/02 10:09:03;;;;;;;5.68;5.53;;;8.80;99.90;;;;;;4189753;28;20102;-89
2023/03/02 10:12:02;;;;;;;6.70;6.30;;;9.10;99.90;;;;;;4205429;28;20224;-89
2023/03/02 10:14:35;;;;;;;5.53;5.18;;;9.30;99.90;;;;;;4185673;28;20151;-89
2023/03/02 10:17:35;;;;;;;5.65;5.55;;;9.30;99.90;;;;;;4204145;28;20086;-89
2023/03/02 10:20:12;;;;;;;5.30;5.20;;;8.70;99.90;;;;;;4187201;28;20105;-89
2023/03/02 10:22:41;;;;;;;6.07;5.88;;;8.20;99.90;;;;;;4205011;28;20067;-88
2023/03/02 10:25:10;;;;;;;6.90;6.50;;;8.40;99.90;;;;;;4188799;28;20048;-89
2023/03/02 10:27:37;;;;;;;6.22;5.93;;;8.70;99.90;;;;;;4205090;28;20108;-88
2023/03/02 10:30:30;;;;;;;6.07;5.90;;;8.80;99.90;;;;;;4190225;28;20072;-88
2023/03/02 10:32:54;;;;;;;7.97;7.65;;;8.80;99.90;;;;;;4205190;28;20381;-89
2023/03/02 10:35:19;;;;;;;;;;;8.80;99.90;;;;;;4189751;28;20052;-89
2023/03/02 10:37:39;;;;;;;6.50;6.10;;;8.50;99.90;;;;;;4195410;28;20235;-89
2023/03/02 10:39:59;;;;;;;7.20;6.93;;;8.60;99.90;;;;;;4204685;28;20047;-88
2023/03/02 10:42:33;;;;;;;6.63;6.22;;;8.80;99.90;;;;;;4208025;28;20083;-89
2023/03/02 10:45:20;;;;;;;6.60;6.32;;;8.70;99.90;;;;;;4190252;28;20104;-88
2023/03/02 10:47:41;;;;;;;6.82;6.53;;;8.70;99.90;;;;;;4185751;28;20099;-88
2023/03/02 10:50:01;;;;;;;6.88;6.53;;;8.80;99.90;;;;;;4207123;28;20047;-89
2023/03/02 10:52:24;;;;;;;7.55;7.25;;;9.10;99.90;;;;;;4207196;28;20423;-88
2023/03/02 10:54:46;;;;;;;6.45;6.35;;;9.20;99.90;;;;;;4193007;28;20375;-88
2023/03/02 10:57:28;;;;;;;7.03;6.80;;;9.20;99.90;;;;;;4185277;28;20060;-89
2023/03/02 10:59:50;;;;;;;7.75;7.43;;;9.20;99.90;;;;;;4199289;28;20079;-89
2023/03/02 11:02:22;;;;;;;7.87;7.57;;;9.30;99.90;;;;;;4206722;28;20126;-89
2023/03/02 11:04:43;;;;;;;6.55;6.35;;;9.00;99.90;;;;;;4193760;28;20052;-89
2023/03/02 11:07:14;;;;;;;7.68;7.38;;;9.00;99.90;;;;;;4192600;28;20140;-89
2023/03/02 11:09:34;;;;;;;5.50;5.40;;;9.10;99.90;;;;;;4192099;28;20127;-89
2023/03/02 11:11:55;;;;;;;5.80;5.70;;;9.10;99.90;;;;;;4206925;28;20094;-89
2023/03/02 11:14:16;;;;;;;6.13;6.00;;;9.00;99.90;;;;;;4191736;28;20143;-89
2023/03/02 11:16:37;;;;;;;5.45;5.30;;;8.90;99.90;;;;;;4187990;28;20079;-89
2023/03/02 11:19:03;;;;;;;4.40;4.30;;;8.80;99.90;;;;;;4207730;28;20269;-89
2023/03/02 11:21:36;;;;;;;4.53;4.43;;;9.20;99.90;;;;;;4206942;28;20051;-88
2023/03/02 11:24:18;;;;;;;3.15;3.15;;;9.80;99.90;;;;;;4189499;28;20048;-88
2023/03/02 11:26:54;;;;;;;6.10;6.00;;;10.60;99.90;;;;;;4206866;28;20059;-88
2023/03/02 11:29:29;;;;;;;4.03;4.03;;;10.60;99.90;;;;;;4187849;28;20141;-88
2023/03/02 11:32:04;;;;;;;2.75;2.75;;;10.00;99.90;;;;;;4207762;28;20250;-88
2023/03/02 11:34:30;;;;;;;5.07;4.97;;;9.90;99.90;;;;;;4205386;28;20066;-88
2023/03/02 11:36:59;;;;;;;5.57;5.47;;;9.90;99.90;;;;;;4192770;28;20290;-88
2023/03/02 11:39:27;;;;;;;4.30;4.30;;;9.80;99.90;;;;;;4207652;28;20110;-88
2023/03/02 11:41:47;;;;;;;3.33;3.10;;;9.80;99.90;;;;;;4192455;28;20079;-88
2023/03/02 11:44:17;;;;;;;3.45;3.45;;;9.60;99.90;;;;;;4185787;28;20119;-88
2023/03/02 11:46:38;;;;;;;3.38;3.38;;;9.50;99.90;;;;;;4207064;28;20152;-88
2023/03/02 11:49:03;;;;;;;3.70;3.55;;;9.60;99.90;;;;;;4206547;28;20106;-88
2023/03/02 11:51:28;;;;;;;3.28;3.28;;;9.60;99.90;;;;;;4191741;28;20043;-88
2023/03/02 11:54:15;;;;;;;4.03;4.03;;;9.60;99.90;;;;;;4207143;28;20047;-88
2023/03/02 11:56:38;;;;;;;2.47;2.47;;;9.80;99.90;;;;;;4191641;28;20047;-88
2023/03/02 11:58:59;;;;;;;;;;;9.80;99.90;;;;;;4207965;28;20374;-88
2023/03/02 12:01:23;;;;;;;3.60;3.60;;;10.00;99.90;;;;;;4207500;28;19923;-88
2023/03/02 12:03:46;;;;;;;3.05;3.05;;;10.30;99.90;;;;;;4206662;28;20105;-88
2023/03/02 12:06:27;;;;;;;2.85;2.75;;;10.60;99.90;;;;;;4207264;28;20047;-88
2023/03/02 12:08:50;;;;;;;2.65;2.53;;;10.10;99.90;;;;;;4184531;28;20115;-88
2023/03/02 12:11:17;;;;;;;3.25;3.25;;;10.40;99.90;;;;;;4192590;28;20408;-88
2023/03/02 12:13:39;;;;;;;3.58;3.58;;;10.30;99.90;;;;;;4207150;28;20066;-88
2023/03/02 12:15:59;;;;;;;2.80;2.72;;;10.20;99.90;;;;;;4189583;28;20036;-88
2023/03/02 12:18:22;;;;;;;3.15;3.10;;;9.90;99.90;;;;;;4192194;28;20100;-89
2023/03/02 12:20:42;;;;;;;2.90;2.80;;;9.70;99.90;;;;;;4192807;28;20109;-89